Time;durP1;ratioP1;P1;durP2;ratioP2;P2;SDS_P1;SDS_P2;PMS_P1;PMS_P2;Temp;Humidity;BMP_temperature;BMP_pressure;BME280_temperature;BME280_humidity;BME280_pressure;Samples;Min_cycle;Max_cycle;Signal;HPM_P1;HPM_P2
2022/06/06 00:02:26;;;;;;;87.30;37.45;;;;;;;14.14;100.00;101285.91;5115120;28;20047;-68
2022/06/06 00:04:51;;;;;;;89.47;37.15;;;;;;;14.15;100.00;101280.63;5114973;28;20346;-67
2022/06/06 00:07:16;;;;;;;87.65;37.92;;;;;;;14.14;100.00;101284.16;5115180;28;20036;-65
2022/06/06 00:09:42;;;;;;;94.50;39.05;;;;;;;14.16;100.00;101284.13;5115069;28;20435;-65
2022/06/06 00:12:07;;;;;;;90.60;37.80;;;;;;;14.10;100.00;101281.63;5115365;28;20031;-64
2022/06/06 00:14:34;;;;;;;87.28;36.15;;;;;;;14.17;100.00;101289.34;5114991;28;20043;-66
2022/06/06 00:16:59;;;;;;;91.90;37.88;;;;;;;14.15;100.00;101279.75;5114736;28;20069;-67
2022/06/06 00:19:25;;;;;;;79.90;35.30;;;;;;;14.18;100.00;101291.09;5114849;28;20023;-65
2022/06/06 00:21:51;;;;;;;79.93;34.60;;;;;;;14.02;100.00;101260.75;5115000;28;20042;-64
2022/06/06 00:24:17;;;;;;;77.80;34.83;;;;;;;14.18;100.00;101282.34;5114672;28;20086;-65
2022/06/06 00:26:42;;;;;;;77.05;34.17;;;;;;;14.24;100.00;101279.53;5114994;28;20401;-66
2022/06/06 00:29:09;;;;;;;76.25;34.33;;;;;;;14.14;100.00;101270.13;5114833;28;20085;-65
2022/06/06 00:37:06;;;;;;;77.47;34.10;;;;;;;14.18;100.00;101262.16;5115325;28;20438;-65
2022/06/06 00:39:32;;;;;;;81.53;34.17;;;;;;;14.16;100.00;101265.69;5114984;28;20096;-65
2022/06/06 00:41:57;;;;;;;80.13;34.67;;;;;;;14.17;100.00;101257.78;5117146;28;20031;-65
2022/06/06 00:44:32;;;;;;;76.88;34.03;;;;;;;14.12;100.00;101254.38;5118640;28;20035;-67
2022/06/06 00:47:20;;;;;;;75.45;34.17;;;;;;;14.14;100.00;101265.72;5118791;28;20096;-66
2022/06/06 00:49:52;;;;;;;75.95;34.28;;;;;;;14.10;100.00;101256.16;5118606;28;20031;-67
2022/06/06 00:52:42;;;;;;;71.20;32.85;;;;;;;14.16;100.00;101258.66;5119137;28;20058;-67
2022/06/06 00:55:17;;;;;;;75.93;33.35;;;;;;;14.12;100.00;101249.09;5118572;28;20039;-65
2022/06/06 00:57:49;;;;;;;74.57;35.10;;;;;;;14.03;100.00;101251.91;5118583;28;20115;-65
2022/06/06 01:00:16;;;;;;;;;;;;;;;14.15;100.00;101258.69;5119276;28;20031;-65
2022/06/06 01:02:43;;;;;;;78.55;34.83;;;;;;;13.99;100.00;101234.47;5118492;28;19954;-66
2022/06/06 01:05:09;;;;;;;79.80;35.30;;;;;;;14.15;100.00;101253.44;5118690;28;20134;-67
2022/06/06 01:07:35;;;;;;;80.30;36.28;;;;;;;14.16;100.00;101256.03;5117819;28;20100;-67
2022/06/06 01:10:00;;;;;;;80.40;35.88;;;;;;;14.17;100.00;101260.41;5118297;28;20423;-66
2022/06/06 01:12:28;;;;;;;86.90;38.30;;;;;;;14.17;100.00;101267.44;5118174;28;20385;-67
2022/06/06 01:14:57;;;;;;;89.35;39.67;;;;;;;14.16;100.00;101263.94;5118527;28;20028;-66
2022/06/06 01:17:54;;;;;;;95.38;40.65;;;;;;;14.17;100.00;101268.31;5117746;28;20045;-65
2022/06/06 01:20:56;;;;;;;94.57;40.40;;;;;;;14.21;100.00;101259.41;5118054;28;20027;-66
2022/06/06 01:24:05;;;;;;;88.63;41.72;;;;;;;14.19;100.00;101261.25;5117363;28;20375;-67
2022/06/06 01:26:51;;;;;;;93.93;42.47;;;;;;;14.20;100.00;101252.41;5117742;28;20043;-65
2022/06/06 01:29:41;;;;;;;92.43;42.35;;;;;;;14.20;100.00;101256.81;5118109;28;20035;-65
2022/06/06 01:32:10;;;;;;;100.55;43.75;;;;;;;14.22;100.00;101258.53;5117704;28;20038;-65
2022/06/06 01:34:39;;;;;;;94.80;41.70;;;;;;;14.16;100.00;101256.03;5117640;28;20027;-65
2022/06/06 01:37:23;;;;;;;94.18;42.95;;;;;;;14.25;100.00;101257.59;5117606;28;20032;-64
2022/06/06 01:39:48;;;;;;;90.88;42.15;;;;;;;14.26;100.00;101254.06;5117745;28;20069;-64
2022/06/06 01:42:29;;;;;;;85.10;42.30;;;;;;;14.20;100.00;101254.19;5117599;28;20028;-65
2022/06/06 01:45:23;;;;;;;87.30;41.85;;;;;;;14.26;100.00;101267.22;5117380;28;20031;-66
2022/06/06 01:47:52;;;;;;;79.32;39.90;;;;;;;14.29;100.00;101254.88;5117927;28;20443;-69
2022/06/06 01:50:20;;;;;;;85.30;39.95;;;;;;;14.30;100.00;101261.00;5116940;28;20084;-67
2022/06/06 01:52:56;;;;;;;84.20;39.00;;;;;;;14.25;100.00;101252.31;5117067;28;20359;-66
2022/06/06 01:55:23;;;;;;;85.63;39.35;;;;;;;14.24;100.00;101256.72;5117114;28;20481;-66
2022/06/06 01:57:52;;;;;;;81.80;38.00;;;;;;;14.14;100.00;101238.53;5117210;28;20393;-67
2022/06/06 02:00:18;;;;;;;81.22;37.95;;;;;;;14.28;100.00;101245.22;5117121;28;20339;-68
2022/06/06 02:02:43;;;;;;;74.00;35.17;;;;;;;14.31;100.00;101240.81;5117285;28;20031;-67
2022/06/06 02:05:11;;;;;;;68.75;33.80;;;;;;;14.29;100.00;101244.34;5116885;28;20030;-67
2022/06/06 02:07:38;;;;;;;67.13;32.33;;;;;;;14.33;100.00;101239.00;5117321;28;20136;-65
2022/06/06 02:10:05;;;;;;;67.53;32.15;;;;;;;14.30;100.00;101232.03;5117094;28;20046;-65
2022/06/06 02:12:30;;;;;;;63.90;30.65;;;;;;;14.37;100.00;101222.25;5117334;28;20063;-66
2022/06/06 02:14:56;;;;;;;65.85;31.08;;;;;;;14.16;100.00;101207.78;5117107;28;20066;-66
2022/06/06 02:17:21;;;;;;;64.45;30.45;;;;;;;14.23;100.00;101233.06;5116848;28;20035;-67
2022/06/06 02:19:46;;;;;;;66.72;32.38;;;;;;;14.20;100.00;101228.72;5116716;28;20045;-68
2022/06/06 02:22:12;;;;;;;62.35;30.30;;;;;;;14.19;100.00;101223.53;5117003;28;20039;-65
2022/06/06 02:24:37;;;;;;;63.65;30.23;;;;;;;14.06;100.00;101215.00;5116280;28;20047;-66
2022/06/06 02:27:02;;;;;;;68.78;31.48;;;;;;;14.20;100.00;101234.00;5116474;28;20035;-65
2022/06/06 02:29:28;;;;;;;62.75;29.42;;;;;;;14.27;100.00;101235.59;5116731;28;20028;-63
2022/06/06 02:31:53;;;;;;;64.05;30.25;;;;;;;14.27;100.00;101240.88;5116672;28;20039;-66
2022/06/06 02:34:18;;;;;;;64.72;30.83;;;;;;;14.30;100.00;101242.56;5116415;28;20423;-65
2022/06/06 02:36:44;;;;;;;67.63;31.00;;;;;;;14.27;100.00;101245.25;5116359;28;20504;-64
2022/06/06 02:39:09;;;;;;;63.95;31.38;;;;;;;14.12;100.00;101224.53;5116539;28;20032;-67
2022/06/06 02:41:34;;;;;;;61.60;31.48;;;;;;;14.21;100.00;101238.34;5116574;28;20047;-64
2022/06/06 02:43:59;;;;;;;69.32;32.67;;;;;;;14.16;100.00;101232.34;5116502;28;20019;-65
2022/06/06 02:46:25;;;;;;;72.85;31.73;;;;;;;14.22;100.00;101234.81;5116254;28;20088;-64
2022/06/06 02:48:50;;;;;;;70.78;32.22;;;;;;;14.12;100.00;101225.41;5116087;28;20354;-67
2022/06/06 02:51:15;;;;;;;63.08;32.05;;;;;;;14.10;100.00;101221.94;5116298;28;20038;-64
2022/06/06 02:53:41;;;;;;;66.28;30.30;;;;;;;13.96;100.00;101197.69;5116334;28;20035;-65
2022/06/06 02:56:07;;;;;;;67.50;30.45;;;;;;;14.15;100.00;101233.25;5116065;28;20494;-64
2022/06/06 02:58:32;;;;;;;66.53;31.60;;;;;;;14.18;100.00;101237.59;5116250;28;20354;-64
2022/06/06 03:01:04;;;;;;;67.03;31.80;;;;;;;14.17;100.00;101239.34;5116287;28;20400;-67
2022/06/06 03:03:30;;;;;;;64.78;32.22;;;;;;;14.12;100.00;101227.19;5115881;28;20024;-65
2022/06/06 03:06:05;;;;;;;62.88;31.25;;;;;;;14.06;100.00;101201.84;5114892;28;20327;-66
2022/06/06 03:08:45;;;;;;;69.68;32.63;;;;;;;14.12;100.00;101235.94;5115846;28;20111;-65
2022/06/06 03:11:33;;;;;;;69.93;32.47;;;;;;;14.13;100.00;101235.03;5115855;28;20039;-64
2022/06/06 03:14:33;;;;;;;67.88;32.85;;;;;;;14.00;100.00;101223.06;5115706;28;20036;-65
2022/06/06 03:23:42;;;;;;;66.60;32.35;;;;;;;13.98;100.00;101240.63;5115687;28;20189;-65
2022/06/06 03:26:32;;;;;;;61.08;29.63;;;;;;;14.01;100.00;101237.94;5115360;28;20043;-66
2022/06/06 03:29:15;;;;;;;63.33;29.20;;;;;;;13.99;100.00;101242.38;5115930;28;20035;-65
2022/06/06 03:32:01;;;;;;;65.22;30.90;;;;;;;13.94;100.00;101246.84;5115524;28;20031;-65
2022/06/06 03:34:35;;;;;;;60.78;29.23;;;;;;;13.97;100.00;101238.03;5115617;28;20461;-65
2022/06/06 03:37:27;;;;;;;62.30;30.50;;;;;;;13.89;100.00;101251.34;5115684;28;20046;-66
2022/06/06 03:40:26;;;;;;;54.75;28.80;;;;;;;14.01;100.00;101250.25;5115394;28;20037;-65
2022/06/06 03:43:11;;;;;;;54.25;27.58;;;;;;;13.89;100.00;101252.22;5115531;28;20041;-65
2022/06/06 03:45:48;;;;;;;56.78;27.83;;;;;;;13.74;100.00;101241.13;5115112;28;20039;-65
2022/06/06 03:48:29;;;;;;;55.45;28.50;;;;;;;13.66;100.00;101251.81;5115648;28;20042;-66
2022/06/06 03:51:07;;;;;;;55.50;28.55;;;;;;;13.59;100.00;101252.81;5115576;28;20032;-64
2022/06/06 03:53:54;;;;;;;53.80;27.67;;;;;;;13.71;100.00;101249.06;5115202;28;20402;-64
2022/06/06 03:56:25;;;;;;;50.67;26.00;;;;;;;13.58;100.00;101251.09;5115081;28;20035;-64
2022/06/06 03:58:52;;;;;;;52.05;26.60;;;;;;;13.51;100.00;101242.44;5115265;28;20038;-63
2022/06/06 04:01:21;;;;;;;44.00;24.33;;;;;;;13.63;100.00;101261.53;5114861;28;20462;-64
2022/06/06 04:03:48;;;;;;;48.63;25.58;;;;;;;13.52;100.00;101251.19;5115204;28;20061;-65
2022/06/06 04:06:16;;;;;;;47.58;24.67;;;;;;;13.48;100.00;101266.19;5115615;28;20485;-65
2022/06/06 04:08:42;;;;;;;39.65;22.42;;;;;;;13.58;100.00;101257.22;5115080;28;20039;-64
2022/06/06 04:11:25;;;;;;;42.22;22.65;;;;;;;13.52;100.00;101265.22;5115553;28;20032;-66
2022/06/06 04:14:15;;;;;;;40.72;21.60;;;;;;;13.52;100.00;101272.22;5115333;28;20058;-65
2022/06/06 04:16:43;;;;;;;42.42;21.95;;;;;;;13.51;100.00;101271.34;5117001;28;20035;-65
2022/06/06 04:19:19;;;;;;;37.65;20.60;;;;;;;13.54;100.00;101275.69;5118839;28;20045;-64
2022/06/06 04:22:04;;;;;;;39.50;21.02;;;;;;;13.51;100.00;101281.88;5119005;28;20031;-65
2022/06/06 04:24:50;;;;;;;38.25;19.40;;;;;;;13.56;100.00;101280.03;5118630;28;20433;-63
2022/06/06 04:27:26;;;;;;;35.97;19.90;;;;;;;13.52;100.00;101272.22;5119145;28;20046;-66
2022/06/06 04:30:35;;;;;;;35.28;20.20;;;;;;;13.74;100.00;101281.44;5118980;28;20118;-65
2022/06/06 04:33:03;;;;;;;35.03;19.60;;;;;;;13.67;100.00;101279.84;5119261;28;20327;-65
2022/06/06 04:35:36;;;;;;;32.88;18.25;;;;;;;13.65;100.00;101279.00;5118856;28;20038;-66
2022/06/06 04:38:23;;;;;;;32.17;18.73;;;;;;;13.67;100.00;101281.63;5118631;28;20465;-63
2022/06/06 04:40:54;;;;;;;34.50;16.10;;;;;;;13.55;100.00;101259.03;5118912;28;20042;-64
2022/06/06 04:43:37;;;;;;;27.55;17.02;;;;;;;13.62;100.00;101280.81;5118852;28;20023;-63
2022/06/06 04:46:11;;;;;;;30.73;17.92;;;;;;;13.72;100.00;101292.91;5118741;28;20027;-65
2022/06/06 04:48:37;;;;;;;30.77;17.40;;;;;;;13.75;100.00;101292.84;5118503;28;20059;-65
2022/06/06 04:51:04;;;;;;;26.60;18.10;;;;;;;13.68;100.00;101268.41;5118862;28;20108;-64
2022/06/06 04:53:32;;;;;;;28.73;18.98;;;;;;;13.63;100.00;101264.16;5118654;28;20050;-65
2022/06/06 04:55:59;;;;;;;30.00;18.20;;;;;;;13.87;100.00;101292.59;5118506;28;20334;-66
2022/06/06 04:58:28;;;;;;;27.52;17.80;;;;;;;13.84;100.00;101284.78;5117994;28;20553;-64
2022/06/06 05:00:54;;;;;;;31.23;19.75;;;;;;;13.82;100.00;101290.06;5118507;28;20444;-65
2022/06/06 05:03:20;;;;;;;28.75;19.88;;;;;;;13.75;100.00;101279.69;5118302;28;20407;-66
2022/06/06 05:06:30;;;;;;;33.63;21.55;;;;;;;13.76;100.00;101282.28;5118289;28;20020;-65
2022/06/06 05:09:01;;;;;;;29.55;20.98;;;;;;;13.73;100.00;101284.97;5092523;28;20401;-64
2022/06/06 05:11:26;;;;;;;28.95;20.98;;;;;;;13.80;100.00;101288.38;5118042;28;20047;-64
2022/06/06 05:14:00;;;;;;;32.40;21.97;;;;;;;13.57;100.00;101255.47;5118144;28;20410;-65
2022/06/06 05:16:55;;;;;;;33.15;21.75;;;;;;;13.82;100.00;101291.84;5118161;28;20300;-64
2022/06/06 05:19:49;;;;;;;27.45;20.55;;;;;;;13.60;100.00;101259.81;5095936;28;20040;-65
2022/06/06 05:22:20;;;;;;;30.45;22.33;;;;;;;13.52;100.00;101256.44;5118096;28;20027;-64
2022/06/06 05:25:07;;;;;;;29.83;21.83;;;;;;;13.61;100.00;101297.50;5117864;28;20070;-64
2022/06/06 05:27:50;;;;;;;29.02;20.30;;;;;;;13.65;100.00;101301.81;5116736;28;20036;-64
2022/06/06 05:30:18;;;;;;;27.23;19.67;;;;;;;13.80;100.00;101301.53;5117580;28;20130;-66
2022/06/06 05:33:02;;;;;;;30.38;20.55;;;;;;;13.69;100.00;101300.84;5117889;28;20351;-64
2022/06/06 05:36:05;;;;;;;27.70;20.63;;;;;;;13.81;100.00;101306.75;5117672;28;20027;-64
2022/06/06 05:38:42;;;;;;;;;;;;;;;13.97;100.00;101301.19;5117994;28;20434;-63
2022/06/06 05:41:16;;;;;;;30.23;20.92;;;;;;;14.01;100.00;101287.94;5117780;28;19914;-65
2022/06/06 05:43:48;;;;;;;26.80;20.05;;;;;;;14.17;100.00;101304.28;5117665;28;20028;-64
2022/06/06 05:46:30;;;;;;;25.73;18.20;;;;;;;14.21;99.46;101309.44;5117439;28;20088;-66
2022/06/06 05:49:14;;;;;;;25.20;18.63;;;;;;;14.06;100.00;101282.56;5117389;28;20084;-65
2022/06/06 05:51:50;;;;;;;24.42;17.70;;;;;;;14.18;98.49;101324.44;5117524;28;20034;-63
2022/06/06 05:54:39;;;;;;;22.17;17.67;;;;;;;14.23;98.90;101306.78;5117160;28;20053;-64
2022/06/06 05:57:10;;;;;;;22.83;18.42;;;;;;;14.23;100.00;101310.28;5117519;28;20081;-64
2022/06/06 06:00:07;;;;;;;24.47;17.20;;;;;;;14.31;99.30;101304.84;5117403;28;20054;-64
2022/06/06 06:02:50;;;;;;;23.50;17.67;;;;;;;14.39;98.69;101305.53;5107698;28;20036;-63
2022/06/06 06:05:21;;;;;;;23.63;17.73;;;;;;;14.44;97.05;101306.34;5106417;28;20027;-63
2022/06/06 06:08:16;;;;;;;21.50;17.33;;;;;;;14.52;97.30;101306.19;5109369;28;20150;-63
2022/06/06 06:10:52;;;;;;;24.27;18.10;;;;;;;14.36;96.75;101307.41;5116932;28;20451;-63
2022/06/06 06:13:39;;;;;;;23.02;15.10;;;;;;;14.33;95.54;101305.69;5116991;28;20123;-62
2022/06/06 06:16:06;;;;;;;17.38;14.40;;;;;;;14.18;95.73;101306.88;5116887;28;20031;-62
2022/06/06 06:18:41;;;;;;;18.40;14.27;;;;;;;14.16;96.57;101319.22;5116952;28;20500;-63
2022/06/06 06:21:23;;;;;;;18.92;13.93;;;;;;;14.18;98.72;101309.53;5116846;28;20027;-63
2022/06/06 06:24:03;;;;;;;18.05;12.63;;;;;;;14.17;98.93;101325.34;5116423;28;20105;-62
2022/06/06 06:26:30;;;;;;;13.45;10.38;;;;;;;14.20;97.42;101315.59;5116707;28;20044;-63
2022/06/06 06:29:01;;;;;;;17.20;9.00;;;;;;;14.21;96.23;101322.59;5100695;28;20032;-62
2022/06/06 06:31:41;;;;;;;11.60;7.90;;;;;;;14.15;95.55;101329.78;5096489;28;20454;-63
2022/06/06 06:34:16;;;;;;;9.70;6.82;;;;;;;14.10;95.87;101329.84;5095992;28;20346;-64
2022/06/06 06:36:45;;;;;;;13.30;6.70;;;;;;;14.18;96.10;101333.22;5095972;28;20032;-64
2022/06/06 06:39:36;;;;;;;11.00;6.28;;;;;;;14.20;96.28;101339.28;5095746;28;20063;-63
2022/06/06 06:42:24;;;;;;;9.13;6.70;;;;;;;14.26;96.05;101338.28;5096382;28;20043;-64
2022/06/06 06:45:00;;;;;;;10.45;6.03;;;;;;;14.25;96.48;101326.03;5096113;28;20036;-63
2022/06/06 06:47:31;;;;;;;8.20;5.57;;;;;;;14.35;92.87;101340.75;5095864;28;20024;-63
2022/06/06 06:50:20;;;;;;;8.77;4.43;;;;;;;14.34;93.10;101343.41;5095775;28;20396;-65
2022/06/06 06:52:51;;;;;;;8.82;5.43;;;;;;;14.28;94.73;101350.53;5096033;28;20035;-64
2022/06/06 06:55:41;;;;;;;6.72;4.35;;;;;;;14.27;94.43;101350.56;5199223;22;20064;-61
2022/06/06 06:58:35;;;;;;;7.93;4.50;;;;;;;14.26;95.33;101346.19;5054758;28;20028;-62
2022/06/06 07:01:07;;;;;;;7.30;3.80;;;;;;;14.36;90.87;101346.91;5055429;28;20359;-62
2022/06/06 07:09:43;;;;;;;4.43;2.97;;;;;;;14.47;90.92;101334.38;5055032;28;20044;-60
2022/06/06 07:12:40;;;;;;;4.88;2.70;;;;;;;14.59;90.54;101340.25;5055284;28;20392;-60
2022/06/06 07:15:35;;;;;;;3.58;2.47;;;;;;;14.62;89.61;101337.56;5055132;28;20044;-60
2022/06/06 07:18:04;;;;;;;6.15;3.15;;;;;;;14.77;89.51;101346.88;5055489;28;20031;-61
2022/06/06 07:20:30;;;;;;;3.70;2.72;;;;;;;14.94;88.36;101344.72;5055242;28;20112;-60
2022/06/06 07:23:02;;;;;;;3.70;2.50;;;;;;;15.09;86.30;101350.53;5055061;28;20044;-61
2022/06/06 07:25:38;;;;;;;;;;;;;;;15.27;86.31;101350.06;5052935;28;20112;-60
2022/06/06 07:28:09;;;;;;;4.13;2.20;;;;;;;15.18;83.17;101352.97;5055340;28;20285;-62
2022/06/06 07:30:41;;;;;;;3.35;2.17;;;;;;;15.26;81.29;101353.63;5055010;28;20447;-61
2022/06/06 07:33:27;;;;;;;7.13;2.55;;;;;;;15.47;84.13;101353.09;5055050;28;20036;-61
2022/06/06 07:36:16;;;;;;;6.57;2.67;;;;;;;15.66;84.33;101367.56;5054780;28;20489;-61
2022/06/06 07:39:01;;;;;;;3.90;2.10;;;;;;;15.85;82.67;101356.53;5044202;28;20037;-60
2022/06/06 07:42:05;;;;;;;4.03;2.20;;;;;;;16.06;80.88;101361.25;5054926;28;20037;-61
2022/06/06 07:44:51;;;;;;;3.20;1.98;;;;;;;16.06;78.05;101353.31;5054542;28;20043;-61
2022/06/06 07:47:29;;;;;;;5.32;1.90;;;;;;;16.18;75.96;101352.97;5054839;28;20447;-61
2022/06/06 07:50:00;;;;;;;3.63;1.98;;;;;;;16.20;76.30;101360.84;5054975;28;20025;-61
2022/06/06 07:52:29;;;;;;;4.25;1.88;;;;;;;16.31;77.25;101369.31;5054313;28;20033;-63
2022/06/06 07:55:10;;;;;;;3.55;2.10;;;;;;;16.47;77.29;101364.44;5054347;28;20049;-60
2022/06/06 07:57:49;;;;;;;3.95;1.75;;;;;;;16.45;77.02;101359.22;5060529;28;20040;-59
2022/06/06 08:00:26;;;;;;;3.25;2.00;;;;;;;16.34;75.89;101354.25;5057134;28;20431;-60
2022/06/06 08:03:11;;;;;;;4.30;1.73;;;;;;;16.43;76.60;101357.56;5072587;28;20465;-61
2022/06/06 08:05:59;;;;;;;3.45;1.88;;;;;;;16.43;74.79;101362.84;5074376;28;20041;-61
2022/06/06 08:08:51;;;;;;;4.47;1.80;;;;;;;16.47;76.13;101357.38;5074849;28;20040;-62
2022/06/06 08:11:25;;;;;;;2.38;1.60;;;;;;;16.71;76.88;101366.41;5074872;28;20040;-62
2022/06/06 08:14:06;;;;;;;4.35;1.63;;;;;;;16.81;74.43;101357.25;5070879;28;20033;-60
2022/06/06 08:16:41;;;;;;;4.20;1.40;;;;;;;16.77;74.18;101347.72;5054837;28;20028;-62
2022/06/06 08:19:07;;;;;;;3.42;1.90;;;;;;;16.76;72.56;101351.28;5060018;28;20047;-60
2022/06/06 08:21:43;;;;;;;3.07;1.40;;;;;;;16.63;73.37;101350.78;5074178;28;20041;-63
2022/06/06 08:24:15;;;;;;;3.83;1.60;;;;;;;16.60;73.83;101353.50;5071149;28;20266;-61
2022/06/06 08:26:43;;;;;;;;;;;;;;;16.91;73.30;101358.72;5035967;28;20110;-60
2022/06/06 08:29:09;;;;;;;4.32;1.48;;;;;;;16.90;73.01;101359.63;5074369;28;19931;-60
2022/06/06 08:31:36;;;;;;;2.15;1.50;;;;;;;16.86;72.29;101352.72;5054624;28;20059;-60
2022/06/06 08:34:01;;;;;;;1.85;1.38;;;;;;;16.93;73.82;101343.69;5053913;28;20100;-60
2022/06/06 08:36:53;;;;;;;2.72;1.52;;;;;;;17.20;73.52;101344.56;5053935;28;20053;-60
2022/06/06 08:39:46;;;;;;;3.67;1.55;;;;;;;17.31;71.07;101344.22;5053847;28;20043;-59
2022/06/06 08:42:29;;;;;;;3.42;1.48;;;;;;;17.42;71.40;101339.44;5054455;28;20032;-60
2022/06/06 08:45:23;;;;;;;3.90;1.35;;;;;;;17.44;71.94;101334.09;5053992;28;20062;-60
2022/06/06 08:48:07;;;;;;;3.97;1.48;;;;;;;17.29;71.12;101330.19;5054343;28;20032;-60
2022/06/06 08:50:55;;;;;;;2.08;1.60;;;;;;;17.14;70.33;101336.84;5053999;28;20024;-60
2022/06/06 08:53:54;;;;;;;4.78;2.72;;;;;;;17.16;70.59;101342.94;5054359;28;20029;-59
2022/06/06 08:56:50;;;;;;;7.05;3.55;;;;;;;17.14;70.03;101331.56;5054035;28;20123;-60
2022/06/06 08:59:18;;;;;;;4.93;2.60;;;;;;;17.16;71.17;101328.84;5054014;28;20401;-59
2022/06/06 09:02:16;;;;;;;5.70;2.30;;;;;;;17.33;71.82;101330.00;5054147;28;20037;-59
2022/06/06 09:05:15;;;;;;;2.35;1.83;;;;;;;17.77;68.43;101329.44;5057233;28;20374;-60
2022/06/06 09:08:04;;;;;;;3.13;2.10;;;;;;;18.15;66.71;101334.22;5057531;28;20116;-59
2022/06/06 09:10:35;;;;;;;3.25;2.10;;;;;;;18.35;67.02;101323.75;5057596;28;20033;-60
2022/06/06 09:13:06;;;;;;;3.17;2.20;;;;;;;18.07;65.50;101315.09;5060309;28;20396;-61
2022/06/06 09:15:43;;;;;;;5.37;2.00;;;;;;;17.81;69.58;101317.84;5046747;28;20108;-60
2022/06/06 09:18:25;;;;;;;3.28;1.90;;;;;;;17.56;70.58;101329.22;5057633;28;20103;-58
2022/06/06 09:21:15;;;;;;;5.05;1.67;;;;;;;17.42;70.45;101325.34;5057349;28;20060;-59
2022/06/06 09:24:16;;;;;;;2.92;1.80;;;;;;;17.18;69.12;101321.72;5057668;28;20048;-60
2022/06/06 09:27:03;;;;;;;3.85;1.70;;;;;;;17.01;70.18;101330.22;5035311;28;20034;-59
2022/06/06 09:29:52;;;;;;;3.17;1.80;;;;;;;16.76;68.20;101303.69;5056013;28;20045;-59
2022/06/06 09:32:26;;;;;;;4.03;1.70;;;;;;;16.77;69.66;101320.44;5057383;28;20347;-60
2022/06/06 09:35:08;;;;;;;5.57;1.90;;;;;;;16.76;72.13;101314.28;5057135;28;20033;-59
2022/06/06 09:37:33;;;;;;;;;;;;;;;17.12;71.13;101317.53;5057394;28;20250;-58
2022/06/06 09:40:08;;;;;;;3.85;1.60;;;;;;;17.52;72.69;101316.16;5057112;28;20038;-60
2022/06/06 09:42:52;;;;;;;2.22;1.50;;;;;;;17.85;69.46;101309.69;5057341;28;20328;-59
2022/06/06 09:45:29;;;;;;;2.90;1.30;;;;;;;17.88;65.90;101304.31;5056528;28;20036;-61
2022/06/06 09:48:12;;;;;;;2.30;1.25;;;;;;;18.03;65.59;101297.56;5056842;28;20095;-60
2022/06/06 09:51:07;;;;;;;4.30;1.30;;;;;;;18.00;64.12;101298.59;5057244;28;20052;-61
2022/06/06 09:53:44;;;;;;;2.30;1.17;;;;;;;18.20;61.46;101303.09;5057647;28;20308;-60
2022/06/06 09:59:59;;;;;;;3.47;1.42;;;;;;;18.78;62.40;101295.59;5056869;28;20043;-59
2022/06/06 10:02:39;;;;;;;4.50;1.15;;;;;;;19.11;60.12;101294.22;5056834;28;20029;-60
2022/06/06 10:05:07;;;;;;;3.28;1.13;;;;;;;19.30;58.70;101289.00;5056600;28;20033;-59
2022/06/06 10:07:38;;;;;;;2.88;1.30;;;;;;;19.10;57.46;101281.00;5056382;28;20043;-60
2022/06/06 10:10:19;;;;;;;3.77;1.30;;;;;;;18.90;58.86;101286.25;5056285;28;20110;-60
2022/06/06 10:13:22;;;;;;;2.47;1.60;;;;;;;18.96;62.78;101286.88;5056589;28;20032;-59
2022/06/06 10:16:10;;;;;;;2.17;1.23;;;;;;;18.81;61.28;101262.78;5056419;28;20276;-61
2022/06/06 10:19:01;;;;;;;3.25;1.35;;;;;;;18.95;59.78;101284.28;5055872;28;20044;-60
2022/06/06 10:21:42;;;;;;;1.73;1.25;;;;;;;18.68;59.72;101270.38;5056526;28;20040;-58
2022/06/06 10:24:31;;;;;;;2.05;1.70;;;;;;;18.52;62.60;101269.22;5056552;28;20040;-59
2022/06/06 10:27:13;;;;;;;3.55;1.50;;;;;;;18.42;61.33;101274.88;5056076;28;20087;-59
2022/06/06 10:30:12;;;;;;;3.00;1.48;;;;;;;18.59;61.40;101276.03;5056151;28;20355;-58
2022/06/06 10:32:56;;;;;;;1.90;1.35;;;;;;;18.82;59.13;101256.56;5056275;28;20040;-59
2022/06/06 10:36:00;;;;;;;5.03;1.08;;;;;;;18.97;60.73;101261.22;5055736;28;20024;-58
2022/06/06 10:38:50;;;;;;;3.38;1.27;;;;;;;19.21;61.82;101264.66;5056059;28;20032;-58
2022/06/06 10:41:21;;;;;;;1.70;1.30;;;;;;;19.06;58.61;101282.91;5055918;28;20113;-59
2022/06/06 10:44:37;;;;;;;3.33;1.50;;;;;;;19.08;63.08;101278.41;5056023;28;20037;-58
2022/06/06 10:47:21;;;;;;;1.90;1.30;;;;;;;19.39;63.52;101277.97;5046229;28;20080;-59
2022/06/06 10:50:11;;;;;;;2.25;1.15;;;;;;;19.72;59.39;101281.00;5055653;28;20419;-60
2022/06/06 10:52:42;;;;;;;2.42;1.13;;;;;;;20.01;59.17;101273.50;5055981;28;20036;-60
2022/06/06 10:55:32;;;;;;;2.22;1.35;;;;;;;20.19;56.35;101269.16;5055274;28;20163;-59
2022/06/06 10:58:35;;;;;;;2.90;1.20;;;;;;;20.11;57.16;101272.16;5054838;28;20458;-60
2022/06/06 11:01:38;;;;;;;4.30;1.40;;;;;;;20.04;59.00;101266.28;5055437;28;20033;-58
2022/06/06 11:04:21;;;;;;;2.85;1.10;;;;;;;20.10;60.50;101268.63;5055227;28;20036;-59
2022/06/06 11:07:36;;;;;;;3.30;1.38;;;;;;;20.34;58.71;101266.63;5055304;28;20037;-59
2022/06/06 11:10:24;;;;;;;4.75;1.05;;;;;;;20.59;54.10;101252.22;5043959;28;20091;-58
2022/06/06 11:13:14;;;;;;;3.30;1.10;;;;;;;20.77;54.02;101265.47;5057639;28;20048;-59
2022/06/06 11:16:16;;;;;;;4.13;1.20;;;;;;;20.37;52.74;101258.53;5055486;28;20024;-58
2022/06/06 11:19:06;;;;;;;4.72;1.05;;;;;;;20.10;53.03;101252.69;5055476;28;20351;-57
2022/06/06 11:22:10;;;;;;;1.38;0.90;;;;;;;20.03;53.69;101243.28;5060142;28;20098;-58
2022/06/06 11:24:42;;;;;;;1.80;1.00;;;;;;;20.15;52.17;101249.81;5065931;28;20035;-59
2022/06/06 11:27:27;;;;;;;2.65;1.17;;;;;;;20.21;52.95;101238.06;5054274;28;20024;-59
2022/06/06 11:30:07;;;;;;;4.15;1.00;;;;;;;20.37;53.49;101244.41;5055033;28;20039;-58
2022/06/06 11:33:01;;;;;;;4.38;0.98;;;;;;;20.48;49.96;101237.63;5055136;28;20056;-59
2022/06/06 11:35:40;;;;;;;1.85;0.95;;;;;;;20.43;50.72;101242.28;5054770;28;20036;-59
2022/06/06 11:38:24;;;;;;;2.80;0.93;;;;;;;20.30;50.90;101249.09;5054803;28;20048;-59
2022/06/06 11:41:09;;;;;;;2.70;1.20;;;;;;;20.22;52.95;101243.28;5055124;28;20118;-59
2022/06/06 11:44:08;;;;;;;3.65;1.27;;;;;;;20.22;53.89;101242.44;5054733;28;20053;-59
2022/06/06 11:46:55;;;;;;;2.30;1.08;;;;;;;20.31;52.62;101242.84;5054404;28;20037;-58
2022/06/06 11:49:58;;;;;;;2.10;1.00;;;;;;;20.41;54.12;101249.50;5054865;28;20024;-59
2022/06/06 11:52:51;;;;;;;2.75;1.10;;;;;;;20.17;51.85;101253.28;5054140;28;20068;-59
2022/06/06 11:55:51;;;;;;;3.28;1.20;;;;;;;19.98;54.20;101266.53;5034577;28;20411;-59
2022/06/06 11:58:52;;;;;;;3.42;1.05;;;;;;;19.61;54.13;101253.19;5034706;28;20087;-51
2022/06/06 12:01:17;;;;;;;4.20;1.17;;;;;;;19.51;54.48;101241.25;5046224;28;20427;-53
2022/06/06 12:04:22;;;;;;;2.33;1.03;;;;;;;19.49;56.16;101249.25;5054862;28;20029;-59
2022/06/06 12:07:26;;;;;;;3.25;1.20;;;;;;;19.44;56.27;101241.47;5054560;28;20291;-59
2022/06/06 12:10:23;;;;;;;2.65;1.20;;;;;;;19.32;56.18;101242.03;5049834;28;20448;-58
2022/06/06 12:13:21;;;;;;;2.88;1.17;;;;;;;19.16;57.70;101245.41;5054885;28;20040;-59
2022/06/06 12:16:05;;;;;;;2.67;0.98;;;;;;;19.14;58.69;101253.44;5050103;28;20029;-60
2022/06/06 12:18:48;;;;;;;1.95;0.93;;;;;;;19.20;58.31;101244.34;5054620;28;20029;-60
2022/06/06 12:21:35;;;;;;;3.15;1.13;;;;;;;19.46;57.20;101241.41;5054621;28;20040;-58
2022/06/06 12:24:24;;;;;;;4.07;1.50;;;;;;;19.34;56.30;101255.22;5054018;28;20029;-61
2022/06/06 12:27:27;;;;;;;2.88;1.02;;;;;;;19.51;55.62;101242.13;5034456;28;20076;-58
2022/06/06 12:30:28;;;;;;;3.40;1.23;;;;;;;19.65;55.15;101241.50;5034368;28;20040;-59
2022/06/06 12:32:58;;;;;;;3.57;1.40;;;;;;;19.39;53.90;101235.50;5034605;28;20056;-55